createdAt,value
2022-12-31T14:19:40.885Z,18.92
2022-12-31T14:22:22.173Z,18.68
2022-12-31T14:24:51.407Z,18.44
2022-12-31T14:27:31.037Z,18.25
2022-12-31T14:30:26.415Z,18.16
2022-12-31T14:33:11.946Z,18.06
2022-12-31T14:36:02.817Z,18.00
2022-12-31T14:39:01.258Z,17.97
2022-12-31T14:42:16.872Z,17.93
2022-12-31T14:45:18.353Z,17.90
2022-12-31T14:48:00.062Z,17.91
2022-12-31T14:50:29.824Z,17.92
2022-12-31T14:53:02.841Z,17.90
2022-12-31T14:55:35.958Z,17.84
2022-12-31T14:58:28.579Z,17.78
2022-12-31T15:01:01.800Z,17.79
2022-12-31T15:03:31.636Z,17.82
2022-12-31T15:06:18.011Z,17.78
2022-12-31T15:09:08.326Z,17.76
2022-12-31T15:12:03.038Z,17.71
2022-12-31T15:15:04.563Z,17.66
2022-12-31T15:18:02.688Z,17.68
2022-12-31T15:21:22.371Z,17.67
2022-12-31T15:23:49.814Z,17.65
2022-12-31T15:26:24.221Z,17.64
2022-12-31T15:29:43.313Z,17.62
2022-12-31T15:32:22.972Z,17.55
2022-12-31T15:35:25.300Z,17.47
2022-12-31T15:38:27.070Z,17.47
2022-12-31T15:40:53.952Z,17.44
2022-12-31T15:43:45.019Z,17.40
2022-12-31T15:46:19.656Z,17.36
2022-12-31T15:49:04.993Z,17.35
2022-12-31T15:51:49.480Z,17.29
2022-12-31T15:54:56.148Z,17.20
2022-12-31T15:57:39.090Z,17.16
2022-12-31T16:00:21.806Z,17.12
2022-12-31T16:02:52.978Z,17.12
2022-12-31T16:05:25.145Z,17.13
2022-12-31T16:07:55.487Z,17.06
2022-12-31T16:10:32.792Z,17.02
2022-12-31T16:13:00.305Z,17.00
2022-12-31T16:15:30.911Z,16.99
2022-12-31T16:18:05.139Z,16.94
2022-12-31T16:20:34.604Z,16.91
2022-12-31T16:23:03.396Z,16.84
2022-12-31T16:25:33.538Z,16.79
2022-12-31T16:28:03.357Z,16.75
2022-12-31T16:30:37.366Z,16.71
2022-12-31T16:33:09.930Z,16.71
2022-12-31T16:35:37.399Z,16.74
2022-12-31T16:38:18.886Z,16.77
2022-12-31T16:41:00.794Z,16.79
2022-12-31T16:43:43.192Z,16.74
2022-12-31T16:46:31.027Z,16.69
2022-12-31T16:49:15.429Z,16.59
2022-12-31T16:51:42.575Z,16.53
2022-12-31T16:54:31.387Z,16.48
2022-12-31T16:56:59.865Z,16.45
2022-12-31T16:59:38.808Z,16.41
2022-12-31T17:02:16.873Z,16.41
2022-12-31T17:04:55.656Z,16.47
2022-12-31T17:07:32.403Z,16.49
2022-12-31T17:10:21.014Z,16.58
2022-12-31T17:15:46.054Z,16.64
2022-12-31T17:18:22.826Z,16.66
2022-12-31T17:20:52.902Z,16.74
2022-12-31T17:23:31.702Z,16.77
2022-12-31T17:26:09.074Z,16.79
2022-12-31T17:28:47.648Z,16.88
2022-12-31T17:31:38.351Z,16.98
2022-12-31T17:34:12.945Z,17.00
2022-12-31T17:36:57.787Z,17.04
2022-12-31T17:39:26.522Z,17.05
2022-12-31T17:41:57.828Z,17.03
2022-12-31T17:44:28.456Z,17.00
2022-12-31T17:46:55.393Z,17.00
2022-12-31T17:49:30.533Z,17.06
2022-12-31T17:51:57.485Z,17.09
2022-12-31T17:54:24.282Z,17.10
2022-12-31T17:56:53.002Z,17.08
2022-12-31T17:59:24.499Z,17.08
2022-12-31T18:01:51.577Z,17.04
2022-12-31T18:04:20.672Z,17.02
2022-12-31T18:06:47.491Z,17.01
2022-12-31T18:09:15.897Z,16.95
2022-12-31T18:11:42.947Z,16.89
2022-12-31T18:14:15.167Z,16.81
2022-12-31T18:16:42.357Z,16.71
2022-12-31T18:19:45.624Z,16.65
2022-12-31T18:22:02.845Z,16.59
2022-12-31T18:24:29.653Z,16.56
2022-12-31T18:26:56.590Z,16.53
2022-12-31T18:29:23.434Z,16.47
2022-12-31T18:31:50.809Z,16.43
2022-12-31T18:34:18.874Z,16.35
2022-12-31T18:36:46.005Z,16.32
2022-12-31T18:39:12.901Z,16.24
2022-12-31T18:41:51.191Z,16.12
2022-12-31T18:44:18.116Z,16.06
2022-12-31T18:46:45.010Z,16.00
2022-12-31T18:49:12.235Z,15.98
2022-12-31T18:51:39.075Z,15.96
2022-12-31T18:54:10.938Z,15.92
2022-12-31T18:56:43.275Z,15.92
2022-12-31T18:59:13.563Z,15.92
2022-12-31T19:01:41.358Z,15.91
2022-12-31T19:04:26.592Z,15.87
2022-12-31T19:06:54.724Z,15.85
2022-12-31T19:09:44.561Z,15.79
2022-12-31T19:12:13.236Z,15.78
2022-12-31T19:14:40.136Z,15.72
2022-12-31T19:19:32.778Z,15.63
2022-12-31T19:21:59.626Z,15.56
2022-12-31T19:24:27.956Z,15.51
2022-12-31T19:26:55.037Z,15.52
2022-12-31T19:29:27.309Z,15.45
2022-12-31T19:31:54.463Z,15.41
2022-12-31T19:34:21.834Z,15.35
2022-12-31T19:36:48.681Z,15.34
2022-12-31T19:39:21.274Z,15.32
2022-12-31T19:41:54.698Z,15.28
2022-12-31T19:44:25.619Z,15.28
2022-12-31T19:46:52.437Z,15.28
2022-12-31T19:49:19.289Z,15.26
2022-12-31T19:51:46.182Z,15.22
2022-12-31T19:54:13.578Z,15.23
2022-12-31T19:56:40.775Z,15.23
2022-12-31T19:59:09.943Z,15.26
2022-12-31T20:01:37.095Z,15.30
2022-12-31T20:04:04.396Z,15.31
2022-12-31T20:06:31.337Z,15.26
2022-12-31T20:08:58.159Z,15.19
2022-12-31T20:11:25.519Z,15.18
2022-12-31T20:13:53.745Z,15.18
2022-12-31T20:16:24.493Z,15.16
2022-12-31T20:18:51.541Z,15.15
2022-12-31T20:21:25.434Z,15.13
2022-12-31T20:23:54.242Z,15.11
2022-12-31T20:26:23.675Z,15.08
2022-12-31T20:28:50.988Z,15.05
2022-12-31T20:31:22.438Z,15.02
2022-12-31T20:33:49.433Z,15.01
2022-12-31T20:36:17.493Z,15.01
2022-12-31T20:38:45.032Z,15.02
2022-12-31T20:41:18.705Z,15.02
2022-12-31T20:43:46.296Z,15.02
2022-12-31T20:46:18.841Z,15.03
2022-12-31T20:48:47.304Z,15.02
2022-12-31T20:51:16.045Z,14.98
2022-12-31T20:53:58.846Z,14.94
2022-12-31T20:56:28.777Z,14.92
2022-12-31T20:58:56.165Z,14.92
2022-12-31T21:01:23.440Z,14.92
2022-12-31T21:04:07.968Z,14.90
2022-12-31T21:06:35.978Z,14.90
2022-12-31T21:09:05.937Z,14.88
2022-12-31T21:11:51.608Z,14.87
2022-12-31T21:14:18.523Z,14.87
2022-12-31T21:16:45.357Z,14.87
2022-12-31T21:19:12.399Z,14.93
2022-12-31T21:21:39.256Z,14.92
2022-12-31T21:24:06.463Z,14.95
2022-12-31T21:26:34.295Z,14.93
2022-12-31T21:29:01.158Z,14.91
2022-12-31T21:31:28.075Z,14.92
2022-12-31T21:33:55.698Z,14.94
2022-12-31T21:36:22.599Z,14.95
2022-12-31T21:38:49.409Z,14.93
2022-12-31T21:41:35.397Z,14.88
2022-12-31T21:44:02.967Z,14.83
2022-12-31T21:46:30.128Z,14.78
2022-12-31T21:49:00.752Z,14.73
2022-12-31T21:51:28.611Z,14.70
2022-12-31T21:53:55.860Z,14.64
2022-12-31T21:56:22.838Z,14.58
2022-12-31T21:59:15.269Z,14.56
2022-12-31T22:02:01.352Z,14.51
2022-12-31T22:05:00.795Z,14.49
2022-12-31T22:07:15.986Z,14.38
2022-12-31T22:09:42.771Z,14.30
2022-12-31T22:12:09.637Z,14.27
2022-12-31T22:14:36.512Z,14.22
2022-12-31T22:17:03.368Z,14.22
2022-12-31T22:19:30.183Z,14.16
2022-12-31T22:21:56.996Z,14.13
2022-12-31T22:24:23.794Z,14.10
2022-12-31T22:26:52.069Z,14.06
2022-12-31T22:29:19.670Z,14.02
2022-12-31T22:31:46.588Z,13.98
2022-12-31T22:34:13.385Z,13.90
2022-12-31T22:36:40.556Z,13.88
2022-12-31T22:39:07.459Z,13.83
2022-12-31T22:41:34.880Z,13.76
2022-12-31T22:44:04.623Z,13.68
2022-12-31T22:46:33.020Z,13.69
2022-12-31T22:49:01.593Z,13.70
2022-12-31T22:51:57.758Z,13.73
2022-12-31T22:54:16.850Z,13.77
2022-12-31T22:56:43.676Z,13.76
2022-12-31T22:59:10.935Z,13.76
2022-12-31T23:01:38.027Z,13.69
2022-12-31T23:04:05.589Z,13.68
2022-12-31T23:06:32.805Z,13.66
2022-12-31T23:09:18.070Z,13.66
2022-12-31T23:11:44.900Z,13.63
2022-12-31T23:14:35.593Z,13.66
2022-12-31T23:17:31.452Z,13.64
2022-12-31T23:20:20.792Z,13.62
2022-12-31T23:23:26.599Z,13.63
2022-12-31T23:25:53.500Z,13.59
2022-12-31T23:28:25.437Z,13.56
2022-12-31T23:30:52.787Z,13.55
2022-12-31T23:33:24.181Z,13.56
2022-12-31T23:35:51.420Z,13.55
2022-12-31T23:38:18.871Z,13.53
2022-12-31T23:40:45.800Z,13.51
2022-12-31T23:43:21.925Z,13.52
2022-12-31T23:45:52.626Z,13.51
2022-12-31T23:48:19.991Z,13.47
2022-12-31T23:50:53.409Z,13.47
2022-12-31T23:53:22.680Z,13.51
2022-12-31T23:55:49.803Z,13.47
2022-12-31T23:58:16.696Z,13.40
